sensor_id;sensor_type;location;lat;lon;timestamp;temperature;humidity
30473;DHT22;17263;48.160;11.452;2023-01-15T00:00:58;8.30;99.90
30473;DHT22;17263;48.160;11.452;2023-01-15T00:03:24;8.30;99.90
30473;DHT22;17263;48.160;11.452;2023-01-15T00:05:50;8.20;99.90
30473;DHT22;17263;48.160;11.452;2023-01-15T00:08:16;8.20;99.90
30473;DHT22;17263;48.160;11.452;2023-01-15T00:10:42;8.10;99.90
30473;DHT22;17263;48.160;11.452;2023-01-15T00:13:08;8.10;99.90
30473;DHT22;17263;48.160;11.452;2023-01-15T00:15:34;8.10;99.90
30473;DHT22;17263;48.160;11.452;2023-01-15T00:18:01;8.00;99.90
30473;DHT22;17263;48.160;11.452;2023-01-15T00:20:28;8.00;99.90
30473;DHT22;17263;48.160;11.452;2023-01-15T00:22:55;8.10;99.90
30473;DHT22;17263;48.160;11.452;2023-01-15T00:25:21;8.10;99.90
30473;DHT22;17263;48.160;11.452;2023-01-15T00:28:06;8.10;99.90
30473;DHT22;17263;48.160;11.452;2023-01-15T00:30:32;8.10;99.90
30473;DHT22;17263;48.160;11.452;2023-01-15T00:32:58;8.10;99.90
30473;DHT22;17263;48.160;11.452;2023-01-15T00:35:24;8.10;99.90
30473;DHT22;17263;48.160;11.452;2023-01-15T00:37:50;8.10;99.90
30473;DHT22;17263;48.160;11.452;2023-01-15T00:40:19;8.00;99.90
30473;DHT22;17263;48.160;11.452;2023-01-15T00:42:45;8.10;99.90
30473;DHT22;17263;48.160;11.452;2023-01-15T00:45:11;8.10;99.90
30473;DHT22;17263;48.160;11.452;2023-01-15T00:47:40;8.00;99.90
30473;DHT22;17263;48.160;11.452;2023-01-15T00:50:12;8.10;99.90
30473;DHT22;17263;48.160;11.452;2023-01-15T00:52:38;8.10;99.90
30473;DHT22;17263;48.160;11.452;2023-01-15T00:55:05;8.10;99.90
30473;DHT22;17263;48.160;11.452;2023-01-15T00:57:31;8.10;99.90
30473;DHT22;17263;48.160;11.452;2023-01-15T00:59:57;8.10;99.90
30473;DHT22;17263;48.160;11.452;2023-01-15T01:02:23;8.00;99.90
30473;DHT22;17263;48.160;11.452;2023-01-15T01:04:49;8.00;99.90
30473;DHT22;17263;48.160;11.452;2023-01-15T01:07:16;8.00;99.90
30473;DHT22;17263;48.160;11.452;2023-01-15T01:09:43;8.00;99.90
30473;DHT22;17263;48.160;11.452;2023-01-15T01:12:09;8.00;99.90
30473;DHT22;17263;48.160;11.452;2023-01-15T01:14:36;8.00;99.90
30473;DHT22;17263;48.160;11.452;2023-01-15T01:17:03;8.00;99.90
30473;DHT22;17263;48.160;11.452;2023-01-15T01:19:29;8.00;99.90
30473;DHT22;17263;48.160;11.452;2023-01-15T01:21:55;8.00;99.90
30473;DHT22;17263;48.160;11.452;2023-01-15T01:24:24;8.00;99.90
30473;DHT22;17263;48.160;11.452;2023-01-15T01:26:51;8.00;99.90
30473;DHT22;17263;48.160;11.452;2023-01-15T01:29:20;8.00;99.90
30473;DHT22;17263;48.160;11.452;2023-01-15T01:31:47;8.00;99.90
30473;DHT22;17263;48.160;11.452;2023-01-15T01:34:14;8.00;99.90
30473;DHT22;17263;48.160;11.452;2023-01-15T01:36:41;8.00;99.90
30473;DHT22;17263;48.160;11.452;2023-01-15T01:39:16;7.90;99.90
30473;DHT22;17263;48.160;11.452;2023-01-15T01:41:43;7.80;99.90
30473;DHT22;17263;48.160;11.452;2023-01-15T01:47:03;7.70;99.90
30473;DHT22;17263;48.160;11.452;2023-01-15T01:49:31;7.60;99.90
30473;DHT22;17263;48.160;11.452;2023-01-15T01:52:12;7.50;99.90
30473;DHT22;17263;48.160;11.452;2023-01-15T01:54:39;7.50;99.90
30473;DHT22;17263;48.160;11.452;2023-01-15T01:57:07;7.50;99.90
30473;DHT22;17263;48.160;11.452;2023-01-15T01:59:35;7.50;99.90
30473;DHT22;17263;48.160;11.452;2023-01-15T02:02:01;7.50;99.90
30473;DHT22;17263;48.160;11.452;2023-01-15T02:04:28;7.50;99.90
30473;DHT22;17263;48.160;11.452;2023-01-15T02:06:56;7.50;99.90
30473;DHT22;17263;48.160;11.452;2023-01-15T02:09:23;7.50;99.90
30473;DHT22;17263;48.160;11.452;2023-01-15T02:11:50;7.50;99.90
30473;DHT22;17263;48.160;11.452;2023-01-15T02:14:29;7.50;99.90
30473;DHT22;17263;48.160;11.452;2023-01-15T02:17:14;7.60;99.90
30473;DHT22;17263;48.160;11.452;2023-01-15T02:19:55;7.60;99.90
30473;DHT22;17263;48.160;11.452;2023-01-15T02:22:49;7.60;99.90
30473;DHT22;17263;48.160;11.452;2023-01-15T02:28:05;7.70;99.90
30473;DHT22;17263;48.160;11.452;2023-01-15T02:30:39;7.70;99.90
30473;DHT22;17263;48.160;11.452;2023-01-15T02:33:30;7.70;99.90
30473;DHT22;17263;48.160;11.452;2023-01-15T02:35:59;7.60;99.90
30473;DHT22;17263;48.160;11.452;2023-01-15T02:38:35;7.60;99.90
30473;DHT22;17263;48.160;11.452;2023-01-15T02:41:03;7.60;99.90
30473;DHT22;17263;48.160;11.452;2023-01-15T02:43:34;7.60;99.90
30473;DHT22;17263;48.160;11.452;2023-01-15T02:46:02;7.60;99.90
30473;DHT22;17263;48.160;11.452;2023-01-15T02:48:31;7.60;99.90
30473;DHT22;17263;48.160;11.452;2023-01-15T02:51:02;7.70;99.90
30473;DHT22;17263;48.160;11.452;2023-01-15T02:53:33;7.70;99.90
30473;DHT22;17263;48.160;11.452;2023-01-15T02:56:05;7.70;99.90
30473;DHT22;17263;48.160;11.452;2023-01-15T02:58:35;7.80;99.90
30473;DHT22;17263;48.160;11.452;2023-01-15T03:01:39;7.80;99.90
30473;DHT22;17263;48.160;11.452;2023-01-15T03:04:09;7.80;99.90
30473;DHT22;17263;48.160;11.452;2023-01-15T03:06:59;7.80;99.90
30473;DHT22;17263;48.160;11.452;2023-01-15T03:09:27;7.90;99.90
30473;DHT22;17263;48.160;11.452;2023-01-15T03:12:15;7.90;99.90
30473;DHT22;17263;48.160;11.452;2023-01-15T03:17:23;7.90;99.90
30473;DHT22;17263;48.160;11.452;2023-01-15T03:20:01;7.90;99.90
30473;DHT22;17263;48.160;11.452;2023-01-15T03:22:33;7.90;99.90
30473;DHT22;17263;48.160;11.452;2023-01-15T03:25:09;8.00;99.90
30473;DHT22;17263;48.160;11.452;2023-01-15T03:27:37;8.00;99.90
30473;DHT22;17263;48.160;11.452;2023-01-15T03:30:15;7.90;99.90
30473;DHT22;17263;48.160;11.452;2023-01-15T03:32:41;7.90;99.90
30473;DHT22;17263;48.160;11.452;2023-01-15T03:35:38;8.00;99.90
30473;DHT22;17263;48.160;11.452;2023-01-15T03:38:05;7.90;99.90
30473;DHT22;17263;48.160;11.452;2023-01-15T03:40:32;7.90;99.90
30473;DHT22;17263;48.160;11.452;2023-01-15T03:43:05;8.00;99.90
30473;DHT22;17263;48.160;11.452;2023-01-15T03:45:53;8.00;99.90
30473;DHT22;17263;48.160;11.452;2023-01-15T03:48:32;7.90;99.90
30473;DHT22;17263;48.160;11.452;2023-01-15T03:51:04;7.90;99.90
30473;DHT22;17263;48.160;11.452;2023-01-15T03:53:42;8.00;99.90
30473;DHT22;17263;48.160;11.452;2023-01-15T03:56:19;7.90;99.90
30473;DHT22;17263;48.160;11.452;2023-01-15T03:58:52;7.90;99.90
30473;DHT22;17263;48.160;11.452;2023-01-15T04:01:27;8.00;99.90
30473;DHT22;17263;48.160;11.452;2023-01-15T04:03:57;7.90;99.90
30473;DHT22;17263;48.160;11.452;2023-01-15T04:06:26;7.90;99.90
30473;DHT22;17263;48.160;11.452;2023-01-15T04:08:54;8.00;99.90
30473;DHT22;17263;48.160;11.452;2023-01-15T04:11:23;8.10;99.90
30473;DHT22;17263;48.160;11.452;2023-01-15T04:13:49;8.00;99.90
30473;DHT22;17263;48.160;11.452;2023-01-15T04:16:23;8.00;99.90
30473;DHT22;17263;48.160;11.452;2023-01-15T04:18:49;8.00;99.90
30473;DHT22;17263;48.160;11.452;2023-01-15T04:21:15;8.00;99.90
30473;DHT22;17263;48.160;11.452;2023-01-15T04:23:41;8.00;99.90
30473;DHT22;17263;48.160;11.452;2023-01-15T04:26:07;7.90;99.90
30473;DHT22;17263;48.160;11.452;2023-01-15T04:28:33;7.90;99.90
30473;DHT22;17263;48.160;11.452;2023-01-15T04:30:59;8.00;99.90
30473;DHT22;17263;48.160;11.452;2023-01-15T04:33:25;8.00;99.90
30473;DHT22;17263;48.160;11.452;2023-01-15T04:35:51;7.90;99.90
30473;DHT22;17263;48.160;11.452;2023-01-15T04:38:17;7.90;99.90
30473;DHT22;17263;48.160;11.452;2023-01-15T04:40:43;8.00;99.90
30473;DHT22;17263;48.160;11.452;2023-01-15T04:43:28;8.00;99.90
30473;DHT22;17263;48.160;11.452;2023-01-15T04:46:13;8.00;99.90
30473;DHT22;17263;48.160;11.452;2023-01-15T04:48:39;8.00;99.90
30473;DHT22;17263;48.160;11.452;2023-01-15T04:51:06;8.00;99.90
30473;DHT22;17263;48.160;11.452;2023-01-15T04:53:32;7.90;99.90
30473;DHT22;17263;48.160;11.452;2023-01-15T04:55:59;8.00;99.90
30473;DHT22;17263;48.160;11.452;2023-01-15T04:58:26;7.90;99.90
30473;DHT22;17263;48.160;11.452;2023-01-15T05:00:52;8.00;99.90
30473;DHT22;17263;48.160;11.452;2023-01-15T05:03:18;7.90;99.90
30473;DHT22;17263;48.160;11.452;2023-01-15T05:05:44;7.90;99.90
30473;DHT22;17263;48.160;11.452;2023-01-15T05:08:10;7.90;99.90
30473;DHT22;17263;48.160;11.452;2023-01-15T05:10:36;7.90;99.90
30473;DHT22;17263;48.160;11.452;2023-01-15T05:13:02;7.90;99.90
30473;DHT22;17263;48.160;11.452;2023-01-15T05:15:28;7.90;99.90
30473;DHT22;17263;48.160;11.452;2023-01-15T05:17:55;7.90;99.90
30473;DHT22;17263;48.160;11.452;2023-01-15T05:20:21;7.90;99.90
30473;DHT22;17263;48.160;11.452;2023-01-15T05:22:47;7.90;99.90
30473;DHT22;17263;48.160;11.452;2023-01-15T05:25:13;8.00;99.90
30473;DHT22;17263;48.160;11.452;2023-01-15T05:27:39;8.00;99.90
30473;DHT22;17263;48.160;11.452;2023-01-15T05:30:06;8.00;99.90
30473;DHT22;17263;48.160;11.452;2023-01-15T05:32:32;8.00;99.90
30473;DHT22;17263;48.160;11.452;2023-01-15T05:34:58;8.20;99.90
30473;DHT22;17263;48.160;11.452;2023-01-15T05:37:24;8.30;99.90
30473;DHT22;17263;48.160;11.452;2023-01-15T05:39:50;8.50;99.90
30473;DHT22;17263;48.160;11.452;2023-01-15T05:42:16;8.80;99.90
30473;DHT22;17263;48.160;11.452;2023-01-15T05:44:42;9.00;99.90
30473;DHT22;17263;48.160;11.452;2023-01-15T05:47:08;9.10;99.90
30473;DHT22;17263;48.160;11.452;2023-01-15T05:49:35;9.30;99.90
30473;DHT22;17263;48.160;11.452;2023-01-15T05:52:01;9.50;99.90
30473;DHT22;17263;48.160;11.452;2023-01-15T05:54:30;9.50;99.90
30473;DHT22;17263;48.160;11.452;2023-01-15T05:56:57;9.70;99.90
30473;DHT22;17263;48.160;11.452;2023-01-15T05:59:24;9.70;99.90
30473;DHT22;17263;48.160;11.452;2023-01-15T06:01:52;9.80;99.90
30473;DHT22;17263;48.160;11.452;2023-01-15T06:04:18;10.00;99.90
30473;DHT22;17263;48.160;11.452;2023-01-15T06:06:49;10.20;99.90
30473;DHT22;17263;48.160;11.452;2023-01-15T06:09:16;10.30;99.90
30473;DHT22;17263;48.160;11.452;2023-01-15T06:11:42;10.30;99.90
30473;DHT22;17263;48.160;11.452;2023-01-15T06:14:10;10.40;99.90
30473;DHT22;17263;48.160;11.452;2023-01-15T06:16:37;10.40;99.90
30473;DHT22;17263;48.160;11.452;2023-01-15T06:19:04;10.40;99.90
30473;DHT22;17263;48.160;11.452;2023-01-15T06:21:32;10.50;99.90
30473;DHT22;17263;48.160;11.452;2023-01-15T06:23:58;10.50;99.90
30473;DHT22;17263;48.160;11.452;2023-01-15T06:26:25;10.50;99.90
30473;DHT22;17263;48.160;11.452;2023-01-15T06:28:51;10.60;99.90
30473;DHT22;17263;48.160;11.452;2023-01-15T06:31:19;10.60;99.90
30473;DHT22;17263;48.160;11.452;2023-01-15T06:33:46;10.80;99.90
30473;DHT22;17263;48.160;11.452;2023-01-15T06:36:14;10.90;99.90
30473;DHT22;17263;48.160;11.452;2023-01-15T06:38:41;10.90;99.90
30473;DHT22;17263;48.160;11.452;2023-01-15T06:41:13;10.90;99.90
30473;DHT22;17263;48.160;11.452;2023-01-15T06:43:58;11.00;99.90
30473;DHT22;17263;48.160;11.452;2023-01-15T06:46:45;11.00;99.90
30473;DHT22;17263;48.160;11.452;2023-01-15T06:49:31;11.00;99.90
30473;DHT22;17263;48.160;11.452;2023-01-15T06:51:57;11.00;99.90
30473;DHT22;17263;48.160;11.452;2023-01-15T06:54:23;11.00;99.90
30473;DHT22;17263;48.160;11.452;2023-01-15T06:56:49;11.00;99.90
30473;DHT22;17263;48.160;11.452;2023-01-15T06:59:16;11.00;99.90
30473;DHT22;17263;48.160;11.452;2023-01-15T07:01:42;11.00;99.90
30473;DHT22;17263;48.160;11.452;2023-01-15T07:04:08;11.00;99.90
30473;DHT22;17263;48.160;11.452;2023-01-15T07:06:34;11.10;99.90
30473;DHT22;17263;48.160;11.452;2023-01-15T07:09:00;11.20;99.90
30473;DHT22;17263;48.160;11.452;2023-01-15T07:11:26;11.20;99.90
30473;DHT22;17263;48.160;11.452;2023-01-15T07:13:52;11.20;99.90
30473;DHT22;17263;48.160;11.452;2023-01-15T07:16:32;11.20;99.90
30473;DHT22;17263;48.160;11.452;2023-01-15T07:18:58;11.10;99.90
30473;DHT22;17263;48.160;11.452;2023-01-15T07:21:24;11.20;99.90
30473;DHT22;17263;48.160;11.452;2023-01-15T07:23:50;11.20;99.90
30473;DHT22;17263;48.160;11.452;2023-01-15T07:26:16;11.20;99.90
30473;DHT22;17263;48.160;11.452;2023-01-15T07:28:42;11.20;99.90
30473;DHT22;17263;48.160;11.452;2023-01-15T07:31:08;11.20;99.90
30473;DHT22;17263;48.160;11.452;2023-01-15T07:33:34;11.20;99.90
30473;DHT22;17263;48.160;11.452;2023-01-15T07:36:04;11.20;99.90
30473;DHT22;17263;48.160;11.452;2023-01-15T07:38:30;11.20;99.90
30473;DHT22;17263;48.160;11.452;2023-01-15T07:40:57;11.20;99.90
30473;DHT22;17263;48.160;11.452;2023-01-15T07:43:42;11.30;99.90
30473;DHT22;17263;48.160;11.452;2023-01-15T07:46:27;11.30;99.90
30473;DHT22;17263;48.160;11.452;2023-01-15T07:49:12;11.30;99.90
30473;DHT22;17263;48.160;11.452;2023-01-15T07:51:56;11.30;99.90
30473;DHT22;17263;48.160;11.452;2023-01-15T07:54:22;11.30;99.90
30473;DHT22;17263;48.160;11.452;2023-01-15T07:56:50;11.30;99.90
30473;DHT22;17263;48.160;11.452;2023-01-15T07:59:17;11.30;99.90
30473;DHT22;17263;48.160;11.452;2023-01-15T08:01:43;11.30;99.90
30473;DHT22;17263;48.160;11.452;2023-01-15T08:04:09;11.30;99.90
30473;DHT22;17263;48.160;11.452;2023-01-15T08:06:35;11.30;99.90
30473;DHT22;17263;48.160;11.452;2023-01-15T08:09:02;11.30;99.90
30473;DHT22;17263;48.160;11.452;2023-01-15T08:11:28;11.30;99.90
30473;DHT22;17263;48.160;11.452;2023-01-15T08:14:12;11.20;99.90
30473;DHT22;17263;48.160;11.452;2023-01-15T08:16:57;11.30;99.90
30473;DHT22;17263;48.160;11.452;2023-01-15T08:19:23;11.30;99.90
30473;DHT22;17263;48.160;11.452;2023-01-15T08:21:57;11.20;99.90
30473;DHT22;17263;48.160;11.452;2023-01-15T08:24:25;11.30;99.90
30473;DHT22;17263;48.160;11.452;2023-01-15T08:26:51;11.40;99.90
30473;DHT22;17263;48.160;11.452;2023-01-15T08:29:18;11.30;99.90
30473;DHT22;17263;48.160;11.452;2023-01-15T08:31:44;11.40;99.90
30473;DHT22;17263;48.160;11.452;2023-01-15T08:34:10;11.30;99.90
30473;DHT22;17263;48.160;11.452;2023-01-15T08:36:36;11.30;99.90
30473;DHT22;17263;48.160;11.452;2023-01-15T08:39:03;11.30;99.90
30473;DHT22;17263;48.160;11.452;2023-01-15T08:41:30;11.40;99.90
30473;DHT22;17263;48.160;11.452;2023-01-15T08:43:56;11.50;99.90
30473;DHT22;17263;48.160;11.452;2023-01-15T08:46:22;11.60;99.90
30473;DHT22;17263;48.160;11.452;2023-01-15T08:48:48;11.60;99.90
30473;DHT22;17263;48.160;11.452;2023-01-15T08:51:14;11.70;99.90
30473;DHT22;17263;48.160;11.452;2023-01-15T08:53:40;11.70;99.90
30473;DHT22;17263;48.160;11.452;2023-01-15T08:56:14;11.70;99.90
30473;DHT22;17263;48.160;11.452;2023-01-15T08:58:41;11.80;99.90
30473;DHT22;17263;48.160;11.452;2023-01-15T09:01:09;11.80;99.90
30473;DHT22;17263;48.160;11.452;2023-01-15T09:03:36;11.80;99.90
30473;DHT22;17263;48.160;11.452;2023-01-15T09:06:03;11.90;99.90
30473;DHT22;17263;48.160;11.452;2023-01-15T09:08:31;11.90;99.90
30473;DHT22;17263;48.160;11.452;2023-01-15T09:10:58;11.90;99.90
30473;DHT22;17263;48.160;11.452;2023-01-15T09:13:25;11.90;99.90
30473;DHT22;17263;48.160;11.452;2023-01-15T09:15:51;11.90;99.90
30473;DHT22;17263;48.160;11.452;2023-01-15T09:18:17;12.00;99.90
30473;DHT22;17263;48.160;11.452;2023-01-15T09:20:45;12.10;99.90
30473;DHT22;17263;48.160;11.452;2023-01-15T09:23:12;12.10;99.90
30473;DHT22;17263;48.160;11.452;2023-01-15T09:25:38;12.20;99.90
30473;DHT22;17263;48.160;11.452;2023-01-15T09:28:04;12.30;99.90
30473;DHT22;17263;48.160;11.452;2023-01-15T09:30:30;12.40;99.90
30473;DHT22;17263;48.160;11.452;2023-01-15T09:32:56;12.40;99.90
30473;DHT22;17263;48.160;11.452;2023-01-15T09:35:22;12.50;99.90
30473;DHT22;17263;48.160;11.452;2023-01-15T09:37:52;12.60;99.90
30473;DHT22;17263;48.160;11.452;2023-01-15T09:43:39;12.70;99.90
30473;DHT22;17263;48.160;11.452;2023-01-15T09:46:22;12.80;99.90
30473;DHT22;17263;48.160;11.452;2023-01-15T09:52:16;12.90;99.90
30473;DHT22;17263;48.160;11.452;2023-01-15T09:54:45;13.00;99.90
30473;DHT22;17263;48.160;11.452;2023-01-15T09:57:14;13.00;99.90
30473;DHT22;17263;48.160;11.452;2023-01-15T09:59:45;13.00;99.90
30473;DHT22;17263;48.160;11.452;2023-01-15T10:02:33;13.00;99.90
30473;DHT22;17263;48.160;11.452;2023-01-15T10:07:45;12.40;99.90
30473;DHT22;17263;48.160;11.452;2023-01-15T10:10:19;11.70;99.90
30473;DHT22;17263;48.160;11.452;2023-01-15T10:12:49;10.90;99.90
30473;DHT22;17263;48.160;11.452;2023-01-15T10:15:35;10.50;99.90
30473;DHT22;17263;48.160;11.452;2023-01-15T10:18:04;10.20;99.90
30473;DHT22;17263;48.160;11.452;2023-01-15T10:23:24;9.60;99.90
30473;DHT22;17263;48.160;11.452;2023-01-15T10:26:11;9.30;99.90
30473;DHT22;17263;48.160;11.452;2023-01-15T10:31:31;9.00;99.90
30473;DHT22;17263;48.160;11.452;2023-01-15T10:39:47;8.40;99.90
30473;DHT22;17263;48.160;11.452;2023-01-15T10:47:33;8.10;99.90
30473;DHT22;17263;48.160;11.452;2023-01-15T10:50:22;8.00;99.90
30473;DHT22;17263;48.160;11.452;2023-01-15T10:53:20;8.00;99.90
30473;DHT22;17263;48.160;11.452;2023-01-15T10:55:53;8.00;99.90
30473;DHT22;17263;48.160;11.452;2023-01-15T10:58:34;7.90;99.90
30473;DHT22;17263;48.160;11.452;2023-01-15T11:01:14;7.80;99.90
30473;DHT22;17263;48.160;11.452;2023-01-15T11:03:42;7.70;99.90
30473;DHT22;17263;48.160;11.452;2023-01-15T11:06:17;7.60;99.90
30473;DHT22;17263;48.160;11.452;2023-01-15T11:08:51;7.60;99.90
30473;DHT22;17263;48.160;11.452;2023-01-15T11:14:14;7.50;99.90
30473;DHT22;17263;48.160;11.452;2023-01-15T11:16:58;7.50;99.90
30473;DHT22;17263;48.160;11.452;2023-01-15T11:19:38;7.60;99.90
30473;DHT22;17263;48.160;11.452;2023-01-15T11:22:08;7.50;99.90
30473;DHT22;17263;48.160;11.452;2023-01-15T11:24:45;7.40;99.90
30473;DHT22;17263;48.160;11.452;2023-01-15T11:27:23;7.30;99.90
30473;DHT22;17263;48.160;11.452;2023-01-15T11:29:53;7.40;99.90
30473;DHT22;17263;48.160;11.452;2023-01-15T11:32:35;7.40;99.90
30473;DHT22;17263;48.160;11.452;2023-01-15T11:35:13;7.30;99.90
30473;DHT22;17263;48.160;11.452;2023-01-15T11:37:40;7.20;99.90
30473;DHT22;17263;48.160;11.452;2023-01-15T11:40:18;7.20;99.90
30473;DHT22;17263;48.160;11.452;2023-01-15T11:42:46;7.10;99.90
30473;DHT22;17263;48.160;11.452;2023-01-15T11:45:31;7.10;99.90
30473;DHT22;17263;48.160;11.452;2023-01-15T11:48:25;7.10;99.90
30473;DHT22;17263;48.160;11.452;2023-01-15T11:51:12;7.10;99.90
30473;DHT22;17263;48.160;11.452;2023-01-15T11:53:54;7.00;99.90
30473;DHT22;17263;48.160;11.452;2023-01-15T11:56:26;7.00;99.90
30473;DHT22;17263;48.160;11.452;2023-01-15T11:58:57;6.90;99.90
30473;DHT22;17263;48.160;11.452;2023-01-15T12:01:37;6.80;99.90
30473;DHT22;17263;48.160;11.452;2023-01-15T12:04:51;6.70;99.90
30473;DHT22;17263;48.160;11.452;2023-01-15T12:07:20;6.70;99.90
30473;DHT22;17263;48.160;11.452;2023-01-15T12:10:04;6.70;99.90
30473;DHT22;17263;48.160;11.452;2023-01-15T12:13:00;6.70;99.90
30473;DHT22;17263;48.160;11.452;2023-01-15T12:21:51;6.70;99.90
30473;DHT22;17263;48.160;11.452;2023-01-15T12:24:45;6.70;99.90
30473;DHT22;17263;48.160;11.452;2023-01-15T12:29:47;6.70;99.90
30473;DHT22;17263;48.160;11.452;2023-01-15T12:32:21;6.70;99.90
30473;DHT22;17263;48.160;11.452;2023-01-15T12:34:52;6.60;99.90
30473;DHT22;17263;48.160;11.452;2023-01-15T12:37:25;6.60;99.90
30473;DHT22;17263;48.160;11.452;2023-01-15T12:39:57;6.60;99.90
30473;DHT22;17263;48.160;11.452;2023-01-15T12:42:29;6.60;99.90
30473;DHT22;17263;48.160;11.452;2023-01-15T12:45:24;6.60;99.90
30473;DHT22;17263;48.160;11.452;2023-01-15T12:50:41;6.60;99.90
30473;DHT22;17263;48.160;11.452;2023-01-15T12:53:36;6.60;99.90
30473;DHT22;17263;48.160;11.452;2023-01-15T12:56:20;6.60;99.90
30473;DHT22;17263;48.160;11.452;2023-01-15T12:59:03;6.60;99.90
30473;DHT22;17263;48.160;11.452;2023-01-15T13:04:33;6.50;99.90
30473;DHT22;17263;48.160;11.452;2023-01-15T13:07:16;6.50;99.90
30473;DHT22;17263;48.160;11.452;2023-01-15T13:09:55;6.60;99.90
30473;DHT22;17263;48.160;11.452;2023-01-15T13:12:24;6.60;99.90
30473;DHT22;17263;48.160;11.452;2023-01-15T13:14:50;6.70;99.90
30473;DHT22;17263;48.160;11.452;2023-01-15T13:17:48;6.70;99.90
30473;DHT22;17263;48.160;11.452;2023-01-15T13:25:57;6.70;99.90
30473;DHT22;17263;48.160;11.452;2023-01-15T13:31:11;6.60;99.90
30473;DHT22;17263;48.160;11.452;2023-01-15T13:33:55;6.60;99.90
30473;DHT22;17263;48.160;11.452;2023-01-15T13:36:29;6.50;99.90
30473;DHT22;17263;48.160;11.452;2023-01-15T13:39:00;6.50;99.90
30473;DHT22;17263;48.160;11.452;2023-01-15T13:41:30;6.50;99.90
30473;DHT22;17263;48.160;11.452;2023-01-15T13:44:22;6.40;99.90
30473;DHT22;17263;48.160;11.452;2023-01-15T13:47:02;6.40;99.90
30473;DHT22;17263;48.160;11.452;2023-01-15T13:49:37;6.40;99.90
30473;DHT22;17263;48.160;11.452;2023-01-15T13:52:07;6.40;99.90
30473;DHT22;17263;48.160;11.452;2023-01-15T13:54:42;6.40;99.90
30473;DHT22;17263;48.160;11.452;2023-01-15T13:57:23;6.40;99.90
30473;DHT22;17263;48.160;11.452;2023-01-15T13:59:49;6.40;99.90
30473;DHT22;17263;48.160;11.452;2023-01-15T14:02:31;6.40;99.90
30473;DHT22;17263;48.160;11.452;2023-01-15T14:04:57;6.40;99.90
30473;DHT22;17263;48.160;11.452;2023-01-15T14:07:35;6.40;99.90
30473;DHT22;17263;48.160;11.452;2023-01-15T14:12:58;6.30;99.90
30473;DHT22;17263;48.160;11.452;2023-01-15T14:20:58;6.30;99.90
30473;DHT22;17263;48.160;11.452;2023-01-15T14:24:07;6.20;99.90
30473;DHT22;17263;48.160;11.452;2023-01-15T14:26:41;6.20;99.90
30473;DHT22;17263;48.160;11.452;2023-01-15T14:32:02;6.10;99.90
30473;DHT22;17263;48.160;11.452;2023-01-15T14:34:33;6.00;99.90
30473;DHT22;17263;48.160;11.452;2023-01-15T14:37:03;6.00;99.90
30473;DHT22;17263;48.160;11.452;2023-01-15T14:39:39;5.90;99.90
30473;DHT22;17263;48.160;11.452;2023-01-15T14:42:23;5.90;99.90
30473;DHT22;17263;48.160;11.452;2023-01-15T14:47:46;5.70;99.90
30473;DHT22;17263;48.160;11.452;2023-01-15T14:50:36;5.60;99.90
30473;DHT22;17263;48.160;11.452;2023-01-15T14:56:07;5.60;99.90
30473;DHT22;17263;48.160;11.452;2023-01-15T14:58:43;5.50;99.90
30473;DHT22;17263;48.160;11.452;2023-01-15T15:04:12;5.30;99.90
30473;DHT22;17263;48.160;11.452;2023-01-15T15:06:58;5.20;99.90
30473;DHT22;17263;48.160;11.452;2023-01-15T15:10:04;5.10;99.90
30473;DHT22;17263;48.160;11.452;2023-01-15T15:15:45;5.00;99.90
30473;DHT22;17263;48.160;11.452;2023-01-15T15:18:31;5.00;99.90
30473;DHT22;17263;48.160;11.452;2023-01-15T15:21:39;4.80;99.90
30473;DHT22;17263;48.160;11.452;2023-01-15T15:24:06;4.70;99.90
30473;DHT22;17263;48.160;11.452;2023-01-15T15:26:38;4.70;99.90
30473;DHT22;17263;48.160;11.452;2023-01-15T15:29:16;4.70;99.90
30473;DHT22;17263;48.160;11.452;2023-01-15T15:31:51;4.70;99.90
30473;DHT22;17263;48.160;11.452;2023-01-15T15:34:30;4.70;99.90
30473;DHT22;17263;48.160;11.452;2023-01-15T15:37:03;4.80;99.90
30473;DHT22;17263;48.160;11.452;2023-01-15T15:39:54;4.80;99.90
30473;DHT22;17263;48.160;11.452;2023-01-15T15:42:32;4.80;99.90
30473;DHT22;17263;48.160;11.452;2023-01-15T15:45:22;4.80;99.90
30473;DHT22;17263;48.160;11.452;2023-01-15T15:50:57;4.80;99.90
30473;DHT22;17263;48.160;11.452;2023-01-15T15:53:23;4.70;99.90
30473;DHT22;17263;48.160;11.452;2023-01-15T15:55:50;4.70;99.90
30473;DHT22;17263;48.160;11.452;2023-01-15T15:58:25;4.70;99.90
30473;DHT22;17263;48.160;11.452;2023-01-15T16:00:52;4.70;99.90
30473;DHT22;17263;48.160;11.452;2023-01-15T16:03:23;4.60;99.90
30473;DHT22;17263;48.160;11.452;2023-01-15T16:05:57;4.60;99.90
30473;DHT22;17263;48.160;11.452;2023-01-15T16:08:24;4.60;99.90
30473;DHT22;17263;48.160;11.452;2023-01-15T16:10:58;4.50;99.90
30473;DHT22;17263;48.160;11.452;2023-01-15T16:13:35;4.60;99.90
30473;DHT22;17263;48.160;11.452;2023-01-15T16:16:04;4.60;99.90
30473;DHT22;17263;48.160;11.452;2023-01-15T16:18:38;4.70;99.90
30473;DHT22;17263;48.160;11.452;2023-01-15T16:21:07;4.70;99.90
30473;DHT22;17263;48.160;11.452;2023-01-15T16:23:34;4.80;99.90
30473;DHT22;17263;48.160;11.452;2023-01-15T16:26:12;4.80;99.90
30473;DHT22;17263;48.160;11.452;2023-01-15T16:28:43;4.80;99.90
30473;DHT22;17263;48.160;11.452;2023-01-15T16:31:11;4.80;99.90
30473;DHT22;17263;48.160;11.452;2023-01-15T16:33:40;4.90;99.90
30473;DHT22;17263;48.160;11.452;2023-01-15T16:36:06;4.90;99.90
30473;DHT22;17263;48.160;11.452;2023-01-15T16:38:40;4.90;99.90
30473;DHT22;17263;48.160;11.452;2023-01-15T16:41:19;4.90;99.90
30473;DHT22;17263;48.160;11.452;2023-01-15T16:43:57;4.80;99.90
30473;DHT22;17263;48.160;11.452;2023-01-15T16:46:26;4.90;99.90
30473;DHT22;17263;48.160;11.452;2023-01-15T16:51:49;5.00;99.90
30473;DHT22;17263;48.160;11.452;2023-01-15T16:57:23;4.90;99.90
30473;DHT22;17263;48.160;11.452;2023-01-15T17:00:04;5.00;99.90
30473;DHT22;17263;48.160;11.452;2023-01-15T17:02:40;4.90;99.90
30473;DHT22;17263;48.160;11.452;2023-01-15T17:05:23;4.90;99.90
30473;DHT22;17263;48.160;11.452;2023-01-15T17:07:51;4.90;99.90
30473;DHT22;17263;48.160;11.452;2023-01-15T17:10:20;4.90;99.90
30473;DHT22;17263;48.160;11.452;2023-01-15T17:12:47;4.90;99.90
30473;DHT22;17263;48.160;11.452;2023-01-15T17:17:40;4.80;99.90
30473;DHT22;17263;48.160;11.452;2023-01-15T17:20:11;4.80;99.90
30473;DHT22;17263;48.160;11.452;2023-01-15T17:22:39;4.80;99.90
30473;DHT22;17263;48.160;11.452;2023-01-15T17:25:32;4.80;99.90
30473;DHT22;17263;48.160;11.452;2023-01-15T17:27:59;4.80;99.90
30473;DHT22;17263;48.160;11.452;2023-01-15T17:30:26;4.80;99.90
30473;DHT22;17263;48.160;11.452;2023-01-15T17:32:59;4.70;99.90